createdAt,value
2022-11-08T18:59:30.955Z,12.68
2022-11-08T19:01:58.049Z,10.15
2022-11-08T19:04:25.281Z,11.70
2022-11-08T19:06:55.092Z,15.93
2022-11-08T19:09:22.287Z,15.20
2022-11-08T19:11:49.531Z,12.40
2022-11-08T19:14:16.793Z,17.35
2022-11-08T19:16:43.947Z,14.52
2022-11-08T19:19:13.459Z,10.93
2022-11-08T19:21:44.462Z,11.05
2022-11-08T19:24:13.806Z,13.15
2022-11-08T19:26:44.494Z,10.75
2022-11-08T19:29:13.297Z,13.80
2022-11-08T19:31:45.449Z,11.68
2022-11-08T19:34:12.420Z,13.60
2022-11-08T19:36:43.460Z,15.20
2022-11-08T19:39:13.463Z,14.60
2022-11-08T19:41:40.616Z,12.13
2022-11-08T19:44:07.628Z,15.00
2022-11-08T19:46:38.994Z,21.23
2022-11-08T19:49:06.001Z,18.52
2022-11-08T19:51:36.674Z,18.80
2022-11-08T19:54:08.693Z,20.70
2022-11-08T19:57:03.307Z,19.27
2022-11-08T19:59:25.659Z,16.50
2022-11-08T20:01:53.072Z,19.38
2022-11-08T20:04:22.407Z,24.38
2022-11-08T20:06:49.590Z,24.98
2022-11-08T20:09:16.774Z,22.65
2022-11-08T20:11:45.939Z,26.10
2022-11-08T20:14:14.175Z,33.58
2022-11-08T20:16:49.246Z,30.05
2022-11-08T20:19:19.404Z,30.30
2022-11-08T20:21:54.573Z,29.67
2022-11-08T20:24:24.178Z,39.83
2022-11-08T20:26:55.227Z,33.70
2022-11-08T20:29:22.394Z,42.28
2022-11-08T20:31:56.527Z,43.47
2022-11-08T20:34:23.638Z,26.55
2022-11-08T20:36:50.853Z,27.30
2022-11-08T20:39:18.036Z,22.80
2022-11-08T20:41:45.801Z,30.08
2022-11-08T20:44:20.160Z,30.73
2022-11-08T20:46:50.209Z,25.90
2022-11-08T20:49:17.544Z,29.35
2022-11-08T20:51:46.902Z,26.67
2022-11-08T20:54:13.972Z,29.15
2022-11-08T20:56:43.095Z,24.48
2022-11-08T20:59:11.070Z,26.20
2022-11-08T21:01:40.504Z,27.98
2022-11-08T21:04:08.717Z,25.50
2022-11-08T21:06:36.641Z,28.33
2022-11-08T21:11:56.186Z,27.25
2022-11-08T21:14:25.669Z,26.70
2022-11-08T21:17:20.395Z,27.88
2022-11-08T21:19:42.995Z,24.70
2022-11-08T21:22:16.155Z,22.23
2022-11-08T21:24:44.557Z,29.27
2022-11-08T21:27:12.342Z,27.45
2022-11-08T21:29:41.520Z,25.40
2022-11-08T21:32:08.513Z,25.35
2022-11-08T21:34:39.672Z,32.25
2022-11-08T21:37:12.738Z,23.13
2022-11-08T21:39:42.596Z,25.48
2022-11-08T21:42:11.906Z,31.10
2022-11-08T21:44:41.222Z,19.05
2022-11-08T21:47:08.085Z,18.90
2022-11-08T21:49:35.084Z,13.98
2022-11-08T21:52:03.577Z,21.45
2022-11-08T21:54:30.749Z,18.80
2022-11-08T21:56:57.671Z,14.18
2022-11-08T21:59:24.583Z,17.55
2022-11-08T22:01:53.913Z,23.48
2022-11-08T22:04:23.172Z,15.68
2022-11-08T22:06:50.213Z,11.93
2022-11-08T22:09:17.198Z,13.02
2022-11-08T22:11:46.251Z,14.50
2022-11-08T22:14:15.518Z,14.85
2022-11-08T22:16:44.662Z,10.27
2022-11-08T22:19:12.054Z,12.20
2022-11-08T22:21:46.123Z,12.00
2022-11-08T22:24:20.236Z,15.05
2022-11-08T22:26:51.576Z,16.83
2022-11-08T22:29:19.250Z,17.90
2022-11-08T22:31:50.629Z,19.00
2022-11-08T22:34:17.765Z,20.70
2022-11-08T22:36:47.582Z,17.98
2022-11-08T22:39:21.884Z,20.23
